Aplicació Alertes

Dades de l'estació automàtica Òdena

?
?
Resum diari 22:30 TU
Dades diàries de l'estació meteorològica
Temperatura mitjana 4.4 °C
Temperatura màxima 9.3 °C 13:57 TU
Temperatura mínima -1.7 °C 0:04 TU
Humitat relativa mitjana 59%
Precipitació acumulada 0.0 mm
Ratxa màxima del vent (10 m) 40.3 km/h - 314º 15:12 TU
Pressió atmosfèrica mitjana 1027.7 hPa
Irradiació solar global 8.8 MJ/m2

El tram horari està expressat en Temps Universal (TU). Cal sumar una hora en horari d'hivern i dues en horari d'estiu per passar a l'hora oficial.

Òdena

Metadades estació meteorol´gica
Municipi Òdena
Comarca Anoia
Altitud 333 m
Data alta 31.05.1999
Estat actual Operativa
Dades de període
Període
TU
TM
°C
TX
°C
TN
°C
HRM
%
PPT
mm
VVM (10 m)
km/h
DVM (10 m)
graus
VVX (10 m)
km/h
PM
hPa
RS
W/m2
00:00 - 00:30 -1.3 -1.0 -1.7 75 0.0 2.9 32 8.6 1025.2 0
00:30 - 01:00 -0.8 0.0 -1.4 73 0.0 2.9 337 9.0 1025.2 0
01:00 - 01:30 -1.1 1.0 -1.6 76 0.0 3.6 357 14.0 1025.5 0
01:30 - 02:00 0.6 2.3 -0.1 70 0.0 5.0 337 15.1 1025.2 0
02:00 - 02:30 2.6 3.0 1.6 70 0.0 7.9 275 20.5 1025.0 0
02:30 - 03:00 3.1 3.5 2.8 68 0.0 5.4 318 12.2 1025.0 0
03:00 - 03:30 2.9 3.4 2.6 69 0.0 4.7 197 10.8 1024.9 0
03:30 - 04:00 3.2 3.4 2.8 66 0.0 5.0 208 11.9 1025.2 0
04:00 - 04:30 2.9 3.2 2.6 68 0.0 13.7 287 24.8 1025.6 0
04:30 - 05:00 2.0 2.6 0.8 72 0.0 6.8 328 19.1 1026.3 0
05:00 - 05:30 0.7 1.8 0.0 77 0.0 5.8 53 19.4 1027.2 0
05:30 - 06:00 1.7 2.2 1.0 73 0.0 9.4 336 20.9 1027.0 0
06:00 - 06:30 0.2 1.2 -1.0 78 0.0 4.3 355 12.2 1027.4 0
06:30 - 07:00 -0.1 0.6 -0.5 79 0.0 5.0 337 9.0 1028.0 0
07:00 - 07:30 -0.6 0.2 -1.0 79 0.0 9.0 288 13.3 1028.4 3
07:30 - 08:00 -0.4 0.5 -0.8 80 0.0 9.7 283 14.8 1028.8 35
08:00 - 08:30 1.4 2.1 0.6 74 0.0 2.9 297 6.5 1028.8 116
08:30 - 09:00 3.0 3.8 1.5 67 0.0 8.6 276 18.7 1029.0 188
09:00 - 09:30 4.3 4.7 3.9 61 0.0 14.0 276 23.0 1029.0 260
09:30 - 10:00 5.3 5.6 4.8 58 0.0 17.6 270 23.4 1029.2 324
10:00 - 10:30 6.2 6.6 5.7 55 0.0 17.3 269 23.4 1029.1 375
10:30 - 11:00 6.9 7.2 6.6 52 0.0 21.6 271 31.0 1028.8 414
11:00 - 11:30 7.7 8.2 7.2 50 0.0 15.1 279 24.5 1028.5 437
11:30 - 12:00 8.5 8.8 8.2 47 0.0 16.2 267 25.9 1028.0 447
12:00 - 12:30 8.2 8.4 8.0 48 0.0 19.8 270 27.4 1027.7 442
12:30 - 13:00 8.3 8.5 8.1 47 0.0 19.8 270 27.4 1027.4 425
13:00 - 13:30 8.8 9.2 8.4 41 0.0 18.7 296 31.3 1026.9 392
13:30 - 14:00 8.9 9.3 8.6 37 0.0 18.4 306 34.6 1026.6 349
14:00 - 14:30 9.2 9.3 9.1 35 0.0 16.9 282 30.2 1026.4 291
14:30 - 15:00 9.1 9.3 9.0 33 0.0 15.8 295 37.4 1026.3 222
15:00 - 15:30 8.7 9.0 8.4 32 0.0 23.4 310 40.3 1026.5 151
15:30 - 16:00 8.1 8.4 7.6 35 0.0 23.4 308 35.6 1026.9 74
16:00 - 16:30 7.1 7.5 6.9 41 0.0 19.4 311 33.1 1027.4 14
16:30 - 17:00 6.8 6.9 6.6 40 0.0 11.5 311 22.7 1027.7 0
17:00 - 17:30 6.2 6.7 5.2 42 0.0 4.7 253 16.9 1028.0 0
17:30 - 18:00 4.8 6.0 3.5 49 0.0 7.2 147 15.1 1028.4 0
18:00 - 18:30 6.0 6.3 5.5 51 0.0 3.2 253 10.8 1028.5 0
18:30 - 19:00 6.0 6.3 5.5 52 0.0 11.2 290 18.7 1028.9 0
19:00 - 19:30 5.0 5.5 4.3 56 0.0 9.4 288 13.7 1029.2 0
19:30 - 20:00 5.5 6.3 4.8 55 0.0 6.8 290 14.0 1029.5 0
20:00 - 20:30 5.8 6.1 5.1 56 0.0 6.1 301 13.3 1029.7 0
20:30 - 21:00 5.7 6.3 5.2 58 0.0 7.9 303 14.8 1029.7 0
21:00 - 21:30 3.8 5.2 2.7 64 0.0 3.6 342 7.6 1030.0 0
21:30 - 22:00 3.4 4.8 2.1 67 0.0 2.9 12 5.0 1030.1 0
22:00 - 22:30 3.2 3.9 2.3 68 0.0 3.2 28 6.5 1030.5 0
22:30 - 23:00 4.3 5.6 2.5 65 0.0 6.8 325 11.9 1030.6 0

Les dades en taronja només han passat un control de qualitat automàtic. Resta pendent la seva validació definitiva.